sensor_id;sensor_type;location;lat;lon;timestamp;pressure;altitude;pressure_sealevel;temperature;humidity
8075;BME280;4080;42.676;23.372;2023-04-25T00:01:15;94372.03;;;11.92;100.00
8075;BME280;4080;42.676;23.372;2023-04-25T00:03:42;94373.34;;;11.95;100.00
8075;BME280;4080;42.676;23.372;2023-04-25T00:06:10;94372.28;;;11.96;100.00
8075;BME280;4080;42.676;23.372;2023-04-25T00:08:37;94363.25;;;11.97;100.00
8075;BME280;4080;42.676;23.372;2023-04-25T00:11:04;94338.16;;;11.80;100.00
8075;BME280;4080;42.676;23.372;2023-04-25T00:13:31;94355.03;;;11.98;100.00
8075;BME280;4080;42.676;23.372;2023-04-25T00:15:58;94347.13;;;11.98;100.00
8075;BME280;4080;42.676;23.372;2023-04-25T00:18:25;94327.31;;;11.82;100.00
8075;BME280;4080;42.676;23.372;2023-04-25T00:20:54;94336.00;;;11.82;100.00
8075;BME280;4080;42.676;23.372;2023-04-25T00:23:22;94325.81;;;11.76;100.00
8075;BME280;4080;42.676;23.372;2023-04-25T00:25:50;94327.47;;;11.72;100.00
8075;BME280;4080;42.676;23.372;2023-04-25T00:28:16;94316.78;;;11.63;100.00
8075;BME280;4080;42.676;23.372;2023-04-25T00:30:43;94324.78;;;11.58;100.00
8075;BME280;4080;42.676;23.372;2023-04-25T00:33:10;94310.09;;;11.52;100.00
8075;BME280;4080;42.676;23.372;2023-04-25T00:35:36;94310.88;;;11.52;100.00
8075;BME280;4080;42.676;23.372;2023-04-25T00:38:03;94309.22;;;11.57;100.00
8075;BME280;4080;42.676;23.372;2023-04-25T00:40:31;94314.88;;;11.50;100.00
8075;BME280;4080;42.676;23.372;2023-04-25T00:42:58;94319.66;;;11.48;100.00
8075;BME280;4080;42.676;23.372;2023-04-25T00:45:28;94319.47;;;11.44;100.00
8075;BME280;4080;42.676;23.372;2023-04-25T00:47:55;94301.66;;;11.36;100.00
8075;BME280;4080;42.676;23.372;2023-04-25T00:50:22;94302.16;;;11.38;100.00
8075;BME280;4080;42.676;23.372;2023-04-25T00:52:49;94301.06;;;11.39;100.00
8075;BME280;4080;42.676;23.372;2023-04-25T00:55:16;94299.50;;;11.38;100.00
8075;BME280;4080;42.676;23.372;2023-04-25T00:57:44;94294.22;;;11.38;100.00
8075;BME280;4080;42.676;23.372;2023-04-25T01:00:11;94301.06;;;11.39;100.00
8075;BME280;4080;42.676;23.372;2023-04-25T01:02:39;94308.41;;;11.42;100.00
8075;BME280;4080;42.676;23.372;2023-04-25T01:05:06;94306.75;;;11.46;100.00
8075;BME280;4080;42.676;23.372;2023-04-25T01:07:33;94300.88;;;11.49;100.00
8075;BME280;4080;42.676;23.372;2023-04-25T01:10:01;94294.53;;;11.50;100.00
8075;BME280;4080;42.676;23.372;2023-04-25T01:12:27;94295.53;;;11.55;100.00
8075;BME280;4080;42.676;23.372;2023-04-25T01:14:56;94278.59;;;11.56;100.00
8075;BME280;4080;42.676;23.372;2023-04-25T01:17:23;94278.59;;;11.56;100.00
8075;BME280;4080;42.676;23.372;2023-04-25T01:19:50;94270.28;;;11.48;100.00
8075;BME280;4080;42.676;23.372;2023-04-25T01:22:18;94275.66;;;11.43;100.00
8075;BME280;4080;42.676;23.372;2023-04-25T01:24:46;94272.59;;;11.36;100.00
8075;BME280;4080;42.676;23.372;2023-04-25T01:27:13;94265.28;;;11.33;100.00
8075;BME280;4080;42.676;23.372;2023-04-25T01:29:40;94261.63;;;11.29;100.00
8075;BME280;4080;42.676;23.372;2023-04-25T01:32:07;94263.75;;;11.27;100.00
8075;BME280;4080;42.676;23.372;2023-04-25T01:34:34;94261.91;;;11.28;100.00
8075;BME280;4080;42.676;23.372;2023-04-25T01:37:01;94262.50;;;11.25;100.00
8075;BME280;4080;42.676;23.372;2023-04-25T01:39:29;94211.75;;;10.95;100.00
8075;BME280;4080;42.676;23.372;2023-04-25T01:41:57;94254.25;;;11.12;100.00
8075;BME280;4080;42.676;23.372;2023-04-25T01:44:24;94268.81;;;11.10;100.00
8075;BME280;4080;42.676;23.372;2023-04-25T01:46:51;94228.13;;;10.78;100.00
8075;BME280;4080;42.676;23.372;2023-04-25T01:49:18;94270.94;;;11.08;100.00
8075;BME280;4080;42.676;23.372;2023-04-25T01:51:44;94264.97;;;11.02;100.00
8075;BME280;4080;42.676;23.372;2023-04-25T01:54:12;94270.47;;;11.06;100.00
8075;BME280;4080;42.676;23.372;2023-04-25T01:56:40;94287.88;;;11.07;100.00
8075;BME280;4080;42.676;23.372;2023-04-25T01:59:07;94283.16;;;11.04;100.00
8075;BME280;4080;42.676;23.372;2023-04-25T02:01:34;94283.16;;;11.04;100.00
8075;BME280;4080;42.676;23.372;2023-04-25T02:04:01;94270.47;;;11.06;100.00
8075;BME280;4080;42.676;23.372;2023-04-25T02:06:28;94258.88;;;11.02;100.00
8075;BME280;4080;42.676;23.372;2023-04-25T02:08:56;94269.72;;;11.00;100.00
8075;BME280;4080;42.676;23.372;2023-04-25T02:11:22;94271.03;;;11.03;100.00
8075;BME280;4080;42.676;23.372;2023-04-25T02:13:50;94262.06;;;11.04;100.00
8075;BME280;4080;42.676;23.372;2023-04-25T02:16:17;94258.09;;;11.01;100.00
8075;BME280;4080;42.676;23.372;2023-04-25T02:18:44;94252.03;;;11.01;100.00
8075;BME280;4080;42.676;23.372;2023-04-25T02:21:10;94258.34;;;11.05;100.00
8075;BME280;4080;42.676;23.372;2023-04-25T02:23:37;94254.63;;;11.06;100.00
8075;BME280;4080;42.676;23.372;2023-04-25T02:26:04;94245.78;;;10.97;100.00
8075;BME280;4080;42.676;23.372;2023-04-25T02:28:31;94238.03;;;10.86;100.00
8075;BME280;4080;42.676;23.372;2023-04-25T02:30:59;94232.56;;;10.83;100.00
8075;BME280;4080;42.676;23.372;2023-04-25T02:33:26;94235.97;;;10.83;100.00
8075;BME280;4080;42.676;23.372;2023-04-25T02:35:52;94236.47;;;10.85;100.00
8075;BME280;4080;42.676;23.372;2023-04-25T02:38:19;94232.47;;;10.88;100.00
8075;BME280;4080;42.676;23.372;2023-04-25T02:40:46;94230.69;;;10.83;100.00
8075;BME280;4080;42.676;23.372;2023-04-25T02:43:12;94228.34;;;10.82;100.00
8075;BME280;4080;42.676;23.372;2023-04-25T02:45:39;94229.13;;;10.82;100.00
8075;BME280;4080;42.676;23.372;2023-04-25T02:48:07;94223.28;;;10.85;100.00
8075;BME280;4080;42.676;23.372;2023-04-25T02:50:34;94226.97;;;10.84;100.00
8075;BME280;4080;42.676;23.372;2023-04-25T02:53:00;94229.84;;;10.69;100.00
8075;BME280;4080;42.676;23.372;2023-04-25T02:55:27;94220.22;;;10.60;100.00
8075;BME280;4080;42.676;23.372;2023-04-25T02:57:54;94219.25;;;10.55;100.00
8075;BME280;4080;42.676;23.372;2023-04-25T03:00:21;94211.16;;;10.66;100.00
8075;BME280;4080;42.676;23.372;2023-04-25T03:02:48;94222.41;;;10.71;100.00
8075;BME280;4080;42.676;23.372;2023-04-25T03:05:16;94221.38;;;10.72;100.00
8075;BME280;4080;42.676;23.372;2023-04-25T03:07:43;94204.19;;;10.56;100.00
8075;BME280;4080;42.676;23.372;2023-04-25T03:10:11;94222.50;;;10.66;100.00
8075;BME280;4080;42.676;23.372;2023-04-25T03:12:37;94220.84;;;10.70;100.00
8075;BME280;4080;42.676;23.372;2023-04-25T03:15:05;94218.94;;;10.76;100.00
8075;BME280;4080;42.676;23.372;2023-04-25T03:17:32;94219.72;;;10.76;100.00
8075;BME280;4080;42.676;23.372;2023-04-25T03:19:59;94213.09;;;10.79;100.00
8075;BME280;4080;42.676;23.372;2023-04-25T03:22:27;94218.38;;;10.79;100.00
8075;BME280;4080;42.676;23.372;2023-04-25T03:24:53;94215.94;;;10.82;100.00
8075;BME280;4080;42.676;23.372;2023-04-25T03:27:20;94217.50;;;10.83;100.00
8075;BME280;4080;42.676;23.372;2023-04-25T03:29:47;94214.28;;;10.86;100.00
8075;BME280;4080;42.676;23.372;2023-04-25T03:32:13;94218.00;;;10.85;100.00
8075;BME280;4080;42.676;23.372;2023-04-25T03:34:40;94214.28;;;10.86;100.00
8075;BME280;4080;42.676;23.372;2023-04-25T03:37:07;94215.06;;;10.87;100.00
8075;BME280;4080;42.676;23.372;2023-04-25T03:39:35;94211.16;;;10.84;100.00
8075;BME280;4080;42.676;23.372;2023-04-25T03:42:04;94210.16;;;10.80;100.00
8075;BME280;4080;42.676;23.372;2023-04-25T03:44:30;94208.41;;;10.76;100.00
8075;BME280;4080;42.676;23.372;2023-04-25T03:46:57;94214.47;;;10.76;100.00
8075;BME280;4080;42.676;23.372;2023-04-25T03:49:24;94207.03;;;10.78;100.00
8075;BME280;4080;42.676;23.372;2023-04-25T03:51:51;94213.59;;;10.81;100.00
8075;BME280;4080;42.676;23.372;2023-04-25T03:54:17;94215.78;;;10.93;100.00
8075;BME280;4080;42.676;23.372;2023-04-25T03:56:46;94219.41;;;10.97;100.00
8075;BME280;4080;42.676;23.372;2023-04-25T03:59:13;94213.97;;;11.07;100.00
8075;BME280;4080;42.676;23.372;2023-04-25T04:01:40;94215.34;;;11.18;100.00
8075;BME280;4080;42.676;23.372;2023-04-25T04:04:07;94214.00;;;11.20;100.00
8075;BME280;4080;42.676;23.372;2023-04-25T04:06:33;94209.50;;;11.21;100.00
8075;BME280;4080;42.676;23.372;2023-04-25T04:09:01;94219.47;;;11.24;100.00
8075;BME280;4080;42.676;23.372;2023-04-25T04:11:28;94221.22;;;11.29;100.00
8075;BME280;4080;42.676;23.372;2023-04-25T04:13:58;94226.16;;;11.35;100.00
8075;BME280;4080;42.676;23.372;2023-04-25T04:16:24;94224.22;;;11.41;100.00
8075;BME280;4080;42.676;23.372;2023-04-25T04:18:51;94222.06;;;11.43;100.00
8075;BME280;4080;42.676;23.372;2023-04-25T04:21:18;94235.34;;;11.51;100.00
8075;BME280;4080;42.676;23.372;2023-04-25T04:23:44;94234.19;;;11.58;100.00
8075;BME280;4080;42.676;23.372;2023-04-25T04:26:11;94234.19;;;11.58;100.00
8075;BME280;4080;42.676;23.372;2023-04-25T04:28:38;94213.34;;;11.56;100.00
8075;BME280;4080;42.676;23.372;2023-04-25T04:31:06;94229.31;;;11.65;100.00
8075;BME280;4080;42.676;23.372;2023-04-25T04:33:34;94235.78;;;11.72;100.00
8075;BME280;4080;42.676;23.372;2023-04-25T04:36:02;94199.38;;;11.56;100.00
8075;BME280;4080;42.676;23.372;2023-04-25T04:38:29;94205.94;;;11.72;100.00
8075;BME280;4080;42.676;23.372;2023-04-25T04:40:56;94216.31;;;11.82;100.00
8075;BME280;4080;42.676;23.372;2023-04-25T04:43:23;94210.34;;;11.76;100.00
8075;BME280;4080;42.676;23.372;2023-04-25T04:45:49;94224.16;;;11.87;100.00
8075;BME280;4080;42.676;23.372;2023-04-25T04:48:17;94215.16;;;11.88;100.00
8075;BME280;4080;42.676;23.372;2023-04-25T04:50:44;94210.56;;;11.80;100.00
8075;BME280;4080;42.676;23.372;2023-04-25T04:53:11;94225.72;;;11.88;100.00
8075;BME280;4080;42.676;23.372;2023-04-25T04:55:38;94228.94;;;11.85;100.00
8075;BME280;4080;42.676;23.372;2023-04-25T04:58:06;94241.75;;;11.92;100.00
8075;BME280;4080;42.676;23.372;2023-04-25T05:00:33;94245.13;;;11.97;100.00
8075;BME280;4080;42.676;23.372;2023-04-25T05:03:00;94236.47;;;11.92;100.00
8075;BME280;4080;42.676;23.372;2023-04-25T05:05:28;94241.47;;;11.93;100.00
8075;BME280;4080;42.676;23.372;2023-04-25T05:07:54;94234.84;;;11.96;100.00
8075;BME280;4080;42.676;23.372;2023-04-25T05:10:21;94242.84;;;11.91;100.00
8075;BME280;4080;42.676;23.372;2023-04-25T05:12:48;94253.41;;;11.91;100.00
8075;BME280;4080;42.676;23.372;2023-04-25T05:15:14;94257.13;;;11.90;100.00
8075;BME280;4080;42.676;23.372;2023-04-25T05:17:41;94253.03;;;11.97;100.00
8075;BME280;4080;42.676;23.372;2023-04-25T05:20:09;94248.84;;;11.96;100.00
8075;BME280;4080;42.676;23.372;2023-04-25T05:22:37;94258.69;;;11.91;100.00
8075;BME280;4080;42.676;23.372;2023-04-25T05:25:04;94271.63;;;11.92;100.00
8075;BME280;4080;42.676;23.372;2023-04-25T05:27:32;94257.06;;;11.95;100.00
8075;BME280;4080;42.676;23.372;2023-04-25T05:29:58;94241.47;;;11.93;100.00
8075;BME280;4080;42.676;23.372;2023-04-25T05:32:25;94254.13;;;11.96;100.00
8075;BME280;4080;42.676;23.372;2023-04-25T05:34:52;94243.44;;;12.01;100.00
8075;BME280;4080;42.676;23.372;2023-04-25T05:37:19;94246.28;;;12.05;100.00
8075;BME280;4080;42.676;23.372;2023-04-25T05:39:47;94246.09;;;12.01;100.00
8075;BME280;4080;42.676;23.372;2023-04-25T05:42:14;94251.38;;;12.01;100.00
8075;BME280;4080;42.676;23.372;2023-04-25T05:44:40;94211.34;;;11.80;100.00
8075;BME280;4080;42.676;23.372;2023-04-25T05:47:07;94226.63;;;11.97;100.00
8075;BME280;4080;42.676;23.372;2023-04-25T05:49:34;94252.44;;;12.14;100.00
8075;BME280;4080;42.676;23.372;2023-04-25T05:52:01;94245.78;;;12.17;100.00
8075;BME280;4080;42.676;23.372;2023-04-25T05:54:27;94252.69;;;12.40;100.00
8075;BME280;4080;42.676;23.372;2023-04-25T05:56:56;94245.66;;;12.35;100.00
8075;BME280;4080;42.676;23.372;2023-04-25T05:59:23;94256.09;;;12.54;100.00
8075;BME280;4080;42.676;23.372;2023-04-25T06:01:50;94255.22;;;12.59;100.00
8075;BME280;4080;42.676;23.372;2023-04-25T06:04:17;94262.94;;;12.69;100.00
8075;BME280;4080;42.676;23.372;2023-04-25T06:06:43;94252.41;;;12.78;100.00
8075;BME280;4080;42.676;23.372;2023-04-25T06:09:10;94254.94;;;12.83;100.00
8075;BME280;4080;42.676;23.372;2023-04-25T06:11:37;94261.69;;;12.89;100.00
8075;BME280;4080;42.676;23.372;2023-04-25T06:14:05;94253.03;;;12.97;100.00
8075;BME280;4080;42.676;23.372;2023-04-25T06:16:32;94243.53;;;12.96;100.00
8075;BME280;4080;42.676;23.372;2023-04-25T06:18:59;94217.00;;;12.87;100.00
8075;BME280;4080;42.676;23.372;2023-04-25T06:21:26;94259.22;;;13.15;100.00
8075;BME280;4080;42.676;23.372;2023-04-25T06:23:52;94261.09;;;13.14;100.00
8075;BME280;4080;42.676;23.372;2023-04-25T06:26:19;94255.00;;;13.14;100.00
8075;BME280;4080;42.676;23.372;2023-04-25T06:28:46;94262.94;;;13.27;100.00
8075;BME280;4080;42.676;23.372;2023-04-25T06:31:15;94261.09;;;13.36;100.00
8075;BME280;4080;42.676;23.372;2023-04-25T06:33:42;94277.66;;;13.42;100.00
8075;BME280;4080;42.676;23.372;2023-04-25T06:36:09;94276.16;;;13.50;100.00
8075;BME280;4080;42.676;23.372;2023-04-25T06:38:35;94264.81;;;13.58;100.00
8075;BME280;4080;42.676;23.372;2023-04-25T06:41:02;94269.38;;;13.66;100.00
8075;BME280;4080;42.676;23.372;2023-04-25T06:43:29;94274.78;;;13.83;100.00
8075;BME280;4080;42.676;23.372;2023-04-25T06:45:58;94264.53;;;13.99;100.00
8075;BME280;4080;42.676;23.372;2023-04-25T06:48:27;94285.03;;;14.16;100.00
8075;BME280;4080;42.676;23.372;2023-04-25T06:50:54;94287.06;;;14.19;100.00
8075;BME280;4080;42.676;23.372;2023-04-25T06:53:21;94289.75;;;14.27;100.00
8075;BME280;4080;42.676;23.372;2023-04-25T06:55:49;94274.00;;;14.31;100.00
8075;BME280;4080;42.676;23.372;2023-04-25T06:58:15;94284.06;;;14.43;100.00
8075;BME280;4080;42.676;23.372;2023-04-25T07:00:42;94284.53;;;14.45;100.00
8075;BME280;4080;42.676;23.372;2023-04-25T07:03:09;94246.03;;;14.16;100.00
8075;BME280;4080;42.676;23.372;2023-04-25T07:05:37;94268.91;;;14.43;100.00
8075;BME280;4080;42.676;23.372;2023-04-25T07:08:04;94279.84;;;14.59;100.00
8075;BME280;4080;42.676;23.372;2023-04-25T07:10:31;94286.00;;;14.77;100.00
8075;BME280;4080;42.676;23.372;2023-04-25T07:12:57;94283.47;;;14.89;100.00
8075;BME280;4080;42.676;23.372;2023-04-25T07:15:24;94283.94;;;15.00;100.00
8075;BME280;4080;42.676;23.372;2023-04-25T07:17:51;94280.50;;;14.99;100.00
8075;BME280;4080;42.676;23.372;2023-04-25T07:20:18;94281.78;;;14.93;100.00
8075;BME280;4080;42.676;23.372;2023-04-25T07:22:46;94284.72;;;14.91;100.00
8075;BME280;4080;42.676;23.372;2023-04-25T07:25:12;94275.06;;;14.87;100.00
8075;BME280;4080;42.676;23.372;2023-04-25T07:27:39;94256.78;;;14.77;100.00
8075;BME280;4080;42.676;23.372;2023-04-25T07:30:07;94276.00;;;14.91;100.00
8075;BME280;4080;42.676;23.372;2023-04-25T07:32:34;94282.38;;;14.99;100.00
8075;BME280;4080;42.676;23.372;2023-04-25T07:35:01;94268.03;;;15.08;100.00
8075;BME280;4080;42.676;23.372;2023-04-25T07:37:28;94266.56;;;15.54;100.00
8075;BME280;4080;42.676;23.372;2023-04-25T07:39:56;94273.13;;;16.12;100.00
8075;BME280;4080;42.676;23.372;2023-04-25T07:42:23;94269.28;;;16.60;100.00
8075;BME280;4080;42.676;23.372;2023-04-25T07:44:50;94278.44;;;17.00;100.00
8075;BME280;4080;42.676;23.372;2023-04-25T07:47:17;94243.09;;;16.91;100.00
8075;BME280;4080;42.676;23.372;2023-04-25T07:49:44;94228.53;;;16.89;100.00
8075;BME280;4080;42.676;23.372;2023-04-25T07:52:12;94264.25;;;17.29;100.00
8075;BME280;4080;42.676;23.372;2023-04-25T07:54:39;94262.81;;;17.11;100.00
8075;BME280;4080;42.676;23.372;2023-04-25T07:57:07;94270.56;;;17.04;100.00
8075;BME280;4080;42.676;23.372;2023-04-25T07:59:33;94266.88;;;16.96;100.00
8075;BME280;4080;42.676;23.372;2023-04-25T08:02:01;94270.72;;;16.87;100.00
8075;BME280;4080;42.676;23.372;2023-04-25T08:04:27;94259.59;;;16.85;100.00
8075;BME280;4080;42.676;23.372;2023-04-25T08:06:54;94266.34;;;16.82;100.00
8075;BME280;4080;42.676;23.372;2023-04-25T08:09:21;94258.09;;;16.96;100.00
8075;BME280;4080;42.676;23.372;2023-04-25T08:11:48;94257.91;;;17.01;100.00
8075;BME280;4080;42.676;23.372;2023-04-25T08:14:16;94268.31;;;17.15;100.00
8075;BME280;4080;42.676;23.372;2023-04-25T08:16:43;94262.78;;;17.53;100.00
8075;BME280;4080;42.676;23.372;2023-04-25T08:19:10;94271.47;;;18.07;100.00
8075;BME280;4080;42.676;23.372;2023-04-25T08:21:37;94258.34;;;18.51;100.00
8075;BME280;4080;42.676;23.372;2023-04-25T08:24:04;94260.16;;;18.71;100.00
8075;BME280;4080;42.676;23.372;2023-04-25T08:26:31;94258.25;;;18.72;100.00
8075;BME280;4080;42.676;23.372;2023-04-25T08:28:58;94258.47;;;18.67;100.00
8075;BME280;4080;42.676;23.372;2023-04-25T08:31:26;94252.69;;;18.65;100.00
8075;BME280;4080;42.676;23.372;2023-04-25T08:33:52;94247.56;;;18.72;100.00
8075;BME280;4080;42.676;23.372;2023-04-25T08:36:19;94246.00;;;19.11;100.00
8075;BME280;4080;42.676;23.372;2023-04-25T08:38:46;94248.94;;;19.34;100.00
8075;BME280;4080;42.676;23.372;2023-04-25T08:41:13;94257.53;;;19.27;100.00
8075;BME280;4080;42.676;23.372;2023-04-25T08:43:42;94266.09;;;19.05;100.00
8075;BME280;4080;42.676;23.372;2023-04-25T08:46:11;94258.25;;;18.72;100.00
8075;BME280;4080;42.676;23.372;2023-04-25T08:48:40;94251.91;;;18.27;100.00
8075;BME280;4080;42.676;23.372;2023-04-25T08:51:09;94266.16;;;18.07;100.00
8075;BME280;4080;42.676;23.372;2023-04-25T08:53:41;94265.22;;;17.79;100.00
8075;BME280;4080;42.676;23.372;2023-04-25T08:56:09;94264.72;;;17.44;100.00
8075;BME280;4080;42.676;23.372;2023-04-25T08:58:40;94259.97;;;16.95;100.00
8075;BME280;4080;42.676;23.372;2023-04-25T09:01:07;94248.56;;;16.65;100.00
8075;BME280;4080;42.676;23.372;2023-04-25T09:03:35;94240.66;;;16.57;100.00
8075;BME280;4080;42.676;23.372;2023-04-25T09:06:03;94236.91;;;16.99;100.00
8075;BME280;4080;42.676;23.372;2023-04-25T09:08:31;94232.00;;;17.55;100.00
8075;BME280;4080;42.676;23.372;2023-04-25T09:10:57;94238.66;;;17.82;100.00
8075;BME280;4080;42.676;23.372;2023-04-25T09:13:25;94236.88;;;18.23;100.00
8075;BME280;4080;42.676;23.372;2023-04-25T09:15:54;94205.63;;;18.48;100.00
8075;BME280;4080;42.676;23.372;2023-04-25T09:18:24;94217.50;;;18.63;100.00
8075;BME280;4080;42.676;23.372;2023-04-25T09:20:52;94216.94;;;18.57;100.00
8075;BME280;4080;42.676;23.372;2023-04-25T09:23:21;94201.69;;;18.57;100.00
8075;BME280;4080;42.676;23.372;2023-04-25T09:25:49;94237.22;;;19.10;100.00
8075;BME280;4080;42.676;23.372;2023-04-25T09:28:22;94222.31;;;18.97;100.00
8075;BME280;4080;42.676;23.372;2023-04-25T09:30:49;94223.56;;;18.87;100.00
8075;BME280;4080;42.676;23.372;2023-04-25T09:33:27;94181.47;;;18.32;100.00
8075;BME280;4080;42.676;23.372;2023-04-25T09:35:54;94228.09;;;18.47;100.00
8075;BME280;4080;42.676;23.372;2023-04-25T09:38:30;94184.28;;;17.99;100.00
8075;BME280;4080;42.676;23.372;2023-04-25T09:40:57;94229.22;;;18.09;100.00
8075;BME280;4080;42.676;23.372;2023-04-25T09:43:24;94227.31;;;17.97;100.00
8075;BME280;4080;42.676;23.372;2023-04-25T09:45:53;94215.63;;;17.90;100.00
8075;BME280;4080;42.676;23.372;2023-04-25T09:48:23;94215.63;;;17.90;100.00
8075;BME280;4080;42.676;23.372;2023-04-25T09:51:04;94211.41;;;18.01;100.00
8075;BME280;4080;42.676;23.372;2023-04-25T09:53:33;94206.09;;;18.13;100.00
8075;BME280;4080;42.676;23.372;2023-04-25T09:56:03;94213.41;;;17.92;100.00
8075;BME280;4080;42.676;23.372;2023-04-25T09:58:30;94215.38;;;17.71;100.00
8075;BME280;4080;42.676;23.372;2023-04-25T10:00:59;94212.69;;;17.58;100.00
8075;BME280;4080;42.676;23.372;2023-04-25T10:03:29;94222.22;;;17.59;100.00
8075;BME280;4080;42.676;23.372;2023-04-25T10:05:57;94224.78;;;17.56;100.00
8075;BME280;4080;42.676;23.372;2023-04-25T10:08:27;94229.56;;;17.50;100.00
8075;BME280;4080;42.676;23.372;2023-04-25T10:10:59;94219.09;;;17.45;100.00
8075;BME280;4080;42.676;23.372;2023-04-25T10:13:28;94223.50;;;17.41;100.00
8075;BME280;4080;42.676;23.372;2023-04-25T10:15:56;94211.50;;;17.35;100.00
8075;BME280;4080;42.676;23.372;2023-04-25T10:18:24;94208.88;;;17.14;100.00
8075;BME280;4080;42.676;23.372;2023-04-25T10:20:52;94191.81;;;16.94;100.00
8075;BME280;4080;42.676;23.372;2023-04-25T10:23:20;94178.78;;;16.60;100.00
8075;BME280;4080;42.676;23.372;2023-04-25T10:25:48;94217.94;;;16.59;100.00
8075;BME280;4080;42.676;23.372;2023-04-25T10:28:17;94191.38;;;16.21;100.00
8075;BME280;4080;42.676;23.372;2023-04-25T10:30:59;94202.00;;;16.30;100.00
8075;BME280;4080;42.676;23.372;2023-04-25T10:33:32;94193.19;;;16.59;100.00
8075;BME280;4080;42.676;23.372;2023-04-25T10:36:09;94194.16;;;17.29;100.00
8075;BME280;4080;42.676;23.372;2023-04-25T10:38:36;94197.84;;;17.82;100.00
8075;BME280;4080;42.676;23.372;2023-04-25T10:41:03;94188.41;;;17.96;100.00
8075;BME280;4080;42.676;23.372;2023-04-25T10:43:37;94209.53;;;18.02;100.00
8075;BME280;4080;42.676;23.372;2023-04-25T10:46:14;94231.97;;;18.00;100.00
8075;BME280;4080;42.676;23.372;2023-04-25T10:48:51;94228.44;;;17.51;100.00
8075;BME280;4080;42.676;23.372;2023-04-25T10:51:20;94203.41;;;17.11;100.00
8075;BME280;4080;42.676;23.372;2023-04-25T10:53:56;94210.72;;;17.01;100.00
8075;BME280;4080;42.676;23.372;2023-04-25T10:56:25;94221.03;;;17.24;100.00
8075;BME280;4080;42.676;23.372;2023-04-25T10:59:03;94212.16;;;17.32;100.00
8075;BME280;4080;42.676;23.372;2023-04-25T11:01:36;94160.44;;;16.79;100.00
8075;BME280;4080;42.676;23.372;2023-04-25T11:04:03;94207.56;;;16.87;100.00
8075;BME280;4080;42.676;23.372;2023-04-25T11:06:37;94201.25;;;16.71;100.00
8075;BME280;4080;42.676;23.372;2023-04-25T11:09:11;94194.75;;;16.60;100.00
8075;BME280;4080;42.676;23.372;2023-04-25T11:11:39;94196.72;;;16.71;100.00
8075;BME280;4080;42.676;23.372;2023-04-25T11:14:07;94186.06;;;16.92;100.00
8075;BME280;4080;42.676;23.372;2023-04-25T11:16:34;94183.53;;;17.08;100.00
8075;BME280;4080;42.676;23.372;2023-04-25T11:19:01;94174.81;;;17.20;100.00
8075;BME280;4080;42.676;23.372;2023-04-25T11:21:29;94180.94;;;17.20;100.00
8075;BME280;4080;42.676;23.372;2023-04-25T11:23:57;94178.28;;;17.20;100.00
8075;BME280;4080;42.676;23.372;2023-04-25T11:26:24;94190.88;;;17.11;100.00
8075;BME280;4080;42.676;23.372;2023-04-25T11:28:51;94180.31;;;17.02;100.00
8075;BME280;4080;42.676;23.372;2023-04-25T11:31:21;94172.66;;;16.80;100.00
8075;BME280;4080;42.676;23.372;2023-04-25T11:33:47;94169.34;;;16.62;100.00
8075;BME280;4080;42.676;23.372;2023-04-25T11:36:14;94152.25;;;16.22;100.00
8075;BME280;4080;42.676;23.372;2023-04-25T11:38:41;94165.16;;;15.81;100.00
8075;BME280;4080;42.676;23.372;2023-04-25T11:41:08;94168.25;;;15.45;100.00
8075;BME280;4080;42.676;23.372;2023-04-25T11:43:34;94178.91;;;15.37;100.00
8075;BME280;4080;42.676;23.372;2023-04-25T11:46:01;94188.16;;;15.31;100.00
8075;BME280;4080;42.676;23.372;2023-04-25T11:48:38;94190.00;;;15.39;100.00
8075;BME280;4080;42.676;23.372;2023-04-25T11:51:05;94188.56;;;15.50;100.00
8075;BME280;4080;42.676;23.372;2023-04-25T11:53:31;94193.09;;;15.58;100.00
8075;BME280;4080;42.676;23.372;2023-04-25T11:55:58;94194.94;;;15.66;100.00
8075;BME280;4080;42.676;23.372;2023-04-25T11:58:26;94182.28;;;15.54;100.00
8075;BME280;4080;42.676;23.372;2023-04-25T12:00:52;94176.13;;;15.33;100.00
8075;BME280;4080;42.676;23.372;2023-04-25T12:03:19;94171.19;;;15.06;100.00
8075;BME280;4080;42.676;23.372;2023-04-25T12:05:48;94171.81;;;14.85;100.00
8075;BME280;4080;42.676;23.372;2023-04-25T12:08:16;94175.44;;;14.81;100.00
8075;BME280;4080;42.676;23.372;2023-04-25T12:10:45;94149.66;;;14.81;100.00
8075;BME280;4080;42.676;23.372;2023-04-25T12:13:23;94160.09;;;14.95;100.00
8075;BME280;4080;42.676;23.372;2023-04-25T12:15:50;94174.75;;;15.10;100.00
8075;BME280;4080;42.676;23.372;2023-04-25T12:18:19;94171.28;;;15.18;100.00
8075;BME280;4080;42.676;23.372;2023-04-25T12:20:47;94169.88;;;15.20;100.00
8075;BME280;4080;42.676;23.372;2023-04-25T12:23:14;94166.63;;;15.15;100.00
8075;BME280;4080;42.676;23.372;2023-04-25T12:25:42;94154.41;;;15.22;100.00
8075;BME280;4080;42.676;23.372;2023-04-25T12:28:13;94160.88;;;15.51;100.00
8075;BME280;4080;42.676;23.372;2023-04-25T12:30:57;94160.16;;;15.80;100.00
8075;BME280;4080;42.676;23.372;2023-04-25T12:33:25;94157.91;;;15.91;100.00
8075;BME280;4080;42.676;23.372;2023-04-25T12:35:54;94166.31;;;16.01;100.00
8075;BME280;4080;42.676;23.372;2023-04-25T12:38:22;94174.81;;;16.15;100.00
8075;BME280;4080;42.676;23.372;2023-04-25T12:40:49;94205.88;;;16.32;100.00
8075;BME280;4080;42.676;23.372;2023-04-25T12:43:16;94218.75;;;16.22;100.00
8075;BME280;4080;42.676;23.372;2023-04-25T12:45:43;94209.25;;;15.82;100.00
8075;BME280;4080;42.676;23.372;2023-04-25T12:48:10;94220.31;;;15.46;100.00
8075;BME280;4080;42.676;23.372;2023-04-25T12:50:36;94226.31;;;15.17;100.00
8075;BME280;4080;42.676;23.372;2023-04-25T12:53:04;94230.84;;;15.00;100.00
8075;BME280;4080;42.676;23.372;2023-04-25T12:55:31;94217.28;;;14.84;100.00
8075;BME280;4080;42.676;23.372;2023-04-25T12:57:58;94195.41;;;14.52;100.00
8075;BME280;4080;42.676;23.372;2023-04-25T13:00:25;94199.94;;;14.43;100.00
8075;BME280;4080;42.676;23.372;2023-04-25T13:02:51;94196.91;;;14.36;100.00